OAKBOAJL

Guest
Details From OAKB - Kabul Intl
To OAJL - JALALABAD
Flight Number -
Tags decoded
Created
Modified
Stats Distance 65 nm / 120 km
Max Altitude 0 ft / 0 m
Waypoints 4
Social Downloads 0
Likes 0
Share VATSIM

Download

Looking for another format? Having issues loading an existing format? Contact us
Advertisement - Login to hide

Notes

Requested: OAKB LEELO LANNI OAJL KOTAL MATAR OAJL

Route

OAKB LEELO LANNI OAJL

ID Type Via Altitude Latitude Longitude Leg Dist Tot Dist Heading (true) Name
O OAKB APT - 0 ft / 0 m 34.56587˚ 69.21229˚ - 0 nm - Kabul Intl
LEELO FIX - 0 ft / 0 m 34.47705˚ 69.55490˚ 17 nm 17 nm 107° / 108° -
LANNI FIX - 0 ft / 0 m 34.43128˚ 69.83779˚ 14 nm 32 nm 101° / 101° -
O OAJL APT - 0 ft / 0 m 34.39984˚ 70.49863˚ 32 nm 64 nm 93° / 93° JALALABAD

Altitude Profile

Advertisement - Login to hide

OAKB

Details ICAO OAKB (KBL)
Name Kabul Intl
Region Afghanistan
Timezone Asia/Kabul (UTC+4.5)
Stats Elevation 5,877 ft / 1,791 m (AMSL)
Location 34.565875° 69.212289°
Runways 1
Magnetic Variation 3.164° E

METAR

OAKB 110850Z 36012KT 9999 SCT070 BKN100 08/M02 Q1016 NOSIG RMK A3002 BLU BLU

Decode

TAF

Not found

Departure Runways

ID Width Length Bearing (true) Bearing (mag) Surface Threshold Offset Overrun Length
11 164 ft / 50 m 11,483 ft / 3,500 m 107.39° 104.23° Asphalt 0 ft / 0 m 144 ft / 44 m
29 164 ft / 50 m 11,483 ft / 3,500 m 287.41° 284.25° Asphalt 0 ft / 0 m 190 ft / 58 m

OAJL

Details ICAO OAJL (JAA)
Name JALALABAD
Region Afghanistan
Timezone Asia/Kabul (UTC+4.5)
Stats Elevation 1,814 ft / 553 m (AMSL)
Location 34.399840° 70.498625°
Runways 1
Magnetic Variation 3.023° E

METAR

OAJL 110855Z 27002KT 5000 HZ BKN050 OVC070 15/00 A2997 RMK AO2A SLP146 T01450004 58030

Decode

TAF

TAF AMD OAJL 110920Z 1109/1214 VRB06KT 5000 -SHRA HZ BKN050 BKN150 QNH2993INS TEMPO 1109/1112 4000 HZ BECMG 1111/1112 VRB06KT 5000 FU HZ SCT050 BKN150 QNH2993INS BECMG 1116/1117 VRB06KT 8000 HZ FEW060 BKN150 QNH2998INS BECMG 1200/1201 VRB06KT 5000 BR SCT060 BKN150 QNH2999INS TEMPO 1201/1205 4000 BR BECMG 1205/1206 VRB06KT 6000 HZ SCT060 BKN150 QNH2999INS BECMG 1210/1211 16009KT 5000 FU SCT060 BKN150 QNH3000INS TEMPO 1211/1214 16010G15KT 4000 VCTS BKN050CB TX19/1109Z TN08/1200Z

Decode

Destination Runways

ID Width Length Bearing (true) Bearing (mag) Surface Threshold Offset Overrun Length
13 148 ft / 45 m 7,263 ft / 2,214 m 131.57° 128.55° Asphalt 0 ft / 0 m 0 ft / 0 m
31 148 ft / 45 m 7,263 ft / 2,214 m 311.58° 308.56° Asphalt 0 ft / 0 m 0 ft / 0 m

Popular Alternatives